createdAt,value
2022-08-22T00:01:56.934Z,6.13
2022-08-22T00:04:29.292Z,7.78
2022-08-22T00:07:20.937Z,6.20
2022-08-22T00:10:11.059Z,7.07
2022-08-22T00:12:48.363Z,6.50
2022-08-22T00:15:43.416Z,6.88
2022-08-22T00:18:28.631Z,6.90
2022-08-22T00:21:06.173Z,6.32
2022-08-22T00:23:46.236Z,6.80
2022-08-22T00:26:24.698Z,6.60
2022-08-22T00:29:03.878Z,6.57
2022-08-22T00:31:36.778Z,6.82
2022-08-22T00:34:12.396Z,7.50
2022-08-22T00:36:47.653Z,6.28
2022-08-22T00:39:36.863Z,6.25
2022-08-22T00:42:29.513Z,5.75
2022-08-22T00:45:17.114Z,6.07
2022-08-22T00:48:05.554Z,6.88
2022-08-22T00:51:05.908Z,6.47
2022-08-22T00:53:46.616Z,6.47
2022-08-22T00:56:35.194Z,6.68
2022-08-22T00:59:32.568Z,6.50
2022-08-22T01:02:21.844Z,7.00
2022-08-22T01:05:20.011Z,6.38
2022-08-22T01:08:11.662Z,6.70
2022-08-22T01:10:56.255Z,7.10
2022-08-22T01:13:39.411Z,6.70
2022-08-22T01:16:27.298Z,7.68
2022-08-22T01:19:29.996Z,6.18
2022-08-22T01:22:38.053Z,6.80
2022-08-22T01:25:32.521Z,6.60
2022-08-22T01:28:38.609Z,6.32
2022-08-22T01:31:28.650Z,6.35
2022-08-22T01:34:31.737Z,7.38
2022-08-22T01:37:16.108Z,7.45
2022-08-22T01:40:10.155Z,7.95
2022-08-22T01:42:44.806Z,6.95
2022-08-22T01:45:14.178Z,6.53
2022-08-22T01:47:49.762Z,6.25
2022-08-22T01:50:41.506Z,6.90
2022-08-22T01:53:28.194Z,6.72
2022-08-22T01:56:09.783Z,6.82
2022-08-22T01:58:44.289Z,6.05
2022-08-22T02:01:39.509Z,6.57
2022-08-22T02:04:24.358Z,6.70
2022-08-22T02:07:05.751Z,7.18
2022-08-22T02:10:00.367Z,6.65
2022-08-22T02:12:42.072Z,6.60
2022-08-22T02:15:14.701Z,6.40
2022-08-22T02:18:06.916Z,7.57
2022-08-22T02:20:48.329Z,6.78
2022-08-22T02:23:20.355Z,6.65
2022-08-22T02:26:04.720Z,6.88
2022-08-22T02:28:58.958Z,6.10
2022-08-22T02:32:05.315Z,6.65
2022-08-22T02:34:40.044Z,6.68
2022-08-22T02:37:24.081Z,5.93
2022-08-22T02:40:04.292Z,5.82
2022-08-22T02:42:43.132Z,7.00
2022-08-22T02:45:29.597Z,7.07
2022-08-22T02:48:23.904Z,6.50
2022-08-22T02:51:06.320Z,7.90
2022-08-22T02:53:48.625Z,6.95
2022-08-22T02:56:24.460Z,6.68
2022-08-22T02:58:53.685Z,7.85
2022-08-22T03:01:35.737Z,7.28
2022-08-22T03:04:21.461Z,7.38
2022-08-22T03:07:11.398Z,6.57
2022-08-22T03:09:56.324Z,7.13
2022-08-22T03:12:32.019Z,7.32
2022-08-22T03:15:10.443Z,7.47
2022-08-22T03:17:50.958Z,7.65
2022-08-22T03:20:42.275Z,6.60
2022-08-22T03:23:13.439Z,6.95
2022-08-22T03:26:00.361Z,6.72
2022-08-22T03:28:59.164Z,7.45
2022-08-22T03:31:28.701Z,6.65
2022-08-22T03:34:21.369Z,7.20
2022-08-22T03:37:00.492Z,7.93
2022-08-22T03:39:48.657Z,7.40
2022-08-22T03:42:41.406Z,7.20
2022-08-22T03:45:29.346Z,7.75
2022-08-22T03:48:17.437Z,8.13
2022-08-22T03:51:05.231Z,7.28
2022-08-22T03:56:31.036Z,7.75
2022-08-22T03:58:57.466Z,6.70
2022-08-22T04:02:24.672Z,7.30
2022-08-22T04:05:24.711Z,7.20
2022-08-22T04:08:02.719Z,7.47
2022-08-22T04:10:51.782Z,7.40
2022-08-22T04:13:36.606Z,7.78
2022-08-22T04:16:11.958Z,7.78
2022-08-22T04:18:41.350Z,7.50
2022-08-22T04:21:13.943Z,7.13
2022-08-22T04:24:02.599Z,7.68
2022-08-22T04:27:01.543Z,7.90
2022-08-22T04:29:38.665Z,8.20
2022-08-22T04:32:15.063Z,7.32
2022-08-22T04:34:50.658Z,8.25
2022-08-22T04:37:23.826Z,7.38
2022-08-22T04:40:01.860Z,7.72
2022-08-22T04:42:45.282Z,7.50
2022-08-22T04:45:50.565Z,8.30
2022-08-22T04:48:34.789Z,8.40
2022-08-22T04:51:05.703Z,7.90
2022-08-22T04:54:03.914Z,8.43
2022-08-22T04:57:07.702Z,7.28
2022-08-22T04:59:35.794Z,6.70
2022-08-22T05:02:08.481Z,7.20
2022-08-22T05:04:47.526Z,5.80
2022-08-22T05:07:21.230Z,5.85
2022-08-22T05:09:58.605Z,5.70
2022-08-22T05:12:37.331Z,5.90
2022-08-22T05:15:19.003Z,5.57
2022-08-22T05:17:52.115Z,5.47
2022-08-22T05:20:22.898Z,5.57
2022-08-22T05:22:58.145Z,5.47
2022-08-22T05:25:30.292Z,5.65
2022-08-22T05:28:08.317Z,6.45
2022-08-22T05:30:36.101Z,5.78
2022-08-22T05:33:19.417Z,5.38
2022-08-22T05:36:17.183Z,4.70
2022-08-22T05:38:52.189Z,4.05
2022-08-22T05:41:24.813Z,4.15
2022-08-22T05:43:53.617Z,4.28
2022-08-22T05:46:39.998Z,3.65
2022-08-22T05:49:38.980Z,3.65
2022-08-22T05:52:30.229Z,4.05
2022-08-22T05:55:22.018Z,3.72
2022-08-22T05:57:58.315Z,3.90
2022-08-22T06:00:32.482Z,4.18
2022-08-22T06:03:29.000Z,3.45
2022-08-22T06:05:59.711Z,3.55
2022-08-22T06:08:38.791Z,4.05
2022-08-22T06:11:34.309Z,3.15
2022-08-22T06:14:26.215Z,3.63
2022-08-22T06:17:02.157Z,4.18
2022-08-22T06:19:29.140Z,3.90
2022-08-22T06:21:57.546Z,3.20
2022-08-22T06:24:27.992Z,4.00
2022-08-22T06:27:02.027Z,3.97
2022-08-22T06:29:33.994Z,4.18
2022-08-22T06:32:07.742Z,4.57
2022-08-22T06:34:38.236Z,3.88
2022-08-22T06:37:10.545Z,4.70
2022-08-22T06:39:42.193Z,4.20
2022-08-22T06:42:16.269Z,4.15
2022-08-22T06:44:59.251Z,4.72
2022-08-22T06:47:30.863Z,4.75
2022-08-22T06:50:13.521Z,4.68
2022-08-22T06:52:53.374Z,4.82
2022-08-22T06:55:20.815Z,4.32
2022-08-22T06:57:55.712Z,4.93
2022-08-22T07:00:23.064Z,4.38
2022-08-22T07:02:58.190Z,5.07
2022-08-22T07:05:28.530Z,4.20
2022-08-22T07:07:56.144Z,5.22
2022-08-22T07:10:24.397Z,4.38
2022-08-22T07:12:54.133Z,4.53
2022-08-22T07:15:37.110Z,4.22
2022-08-22T07:18:15.406Z,4.50
2022-08-22T07:20:45.260Z,4.22
2022-08-22T07:23:31.690Z,4.18
2022-08-22T07:26:12.846Z,4.35
2022-08-22T07:28:51.234Z,4.53
2022-08-22T07:31:38.446Z,4.10
2022-08-22T07:34:44.698Z,3.60
2022-08-22T07:37:52.482Z,3.58
2022-08-22T07:40:22.834Z,3.93
2022-08-22T07:43:02.676Z,3.10
2022-08-22T07:45:34.907Z,2.88
2022-08-22T07:48:26.045Z,3.40
2022-08-22T07:51:15.247Z,2.90
2022-08-22T07:53:45.573Z,3.20
2022-08-22T07:56:16.951Z,2.67
2022-08-22T07:58:47.702Z,2.58
2022-08-22T08:01:20.773Z,2.53
2022-08-22T08:03:54.672Z,2.20
2022-08-22T08:06:24.315Z,2.25
2022-08-22T08:08:52.856Z,2.75
2022-08-22T08:11:22.374Z,1.95
2022-08-22T08:13:54.482Z,2.78
2022-08-22T08:16:27.780Z,2.83
2022-08-22T08:18:58.006Z,2.33
2022-08-22T08:21:42.486Z,2.33
2022-08-22T08:24:19.545Z,2.72
2022-08-22T08:27:13.922Z,1.92
2022-08-22T08:29:48.104Z,2.22
2022-08-22T08:32:15.426Z,2.47
2022-08-22T08:34:43.778Z,3.40
2022-08-22T08:37:51.301Z,2.97
2022-08-22T08:40:40.096Z,2.63
2022-08-22T08:43:28.207Z,2.40
2022-08-22T08:46:14.192Z,2.80
2022-08-22T08:48:57.384Z,2.53
2022-08-22T08:51:42.440Z,2.53
2022-08-22T08:54:37.071Z,3.13
2022-08-22T08:57:32.381Z,2.72
2022-08-22T09:00:21.020Z,3.15
2022-08-22T09:03:15.514Z,2.00
2022-08-22T09:06:31.129Z,2.95
2022-08-22T09:09:10.962Z,2.50
2022-08-22T09:12:00.006Z,2.30
2022-08-22T09:15:10.068Z,2.58
2022-08-22T09:17:57.302Z,2.22
2022-08-22T09:20:47.508Z,2.35
2022-08-22T09:23:41.804Z,2.17
2022-08-22T09:26:19.134Z,2.22
2022-08-22T09:29:07.170Z,2.42
2022-08-22T09:31:47.623Z,1.98
2022-08-22T09:34:34.396Z,2.15
2022-08-22T09:37:21.599Z,2.50
2022-08-22T09:43:02.902Z,1.98
2022-08-22T09:45:52.574Z,1.98
2022-08-22T09:48:30.538Z,2.08
2022-08-22T09:51:31.672Z,2.53
2022-08-22T09:54:21.377Z,2.25
2022-08-22T09:56:58.283Z,1.98
2022-08-22T09:59:27.868Z,2.05
2022-08-22T10:02:24.130Z,1.85
2022-08-22T10:05:40.636Z,1.67
2022-08-22T10:08:33.254Z,2.15
2022-08-22T10:11:09.333Z,2.00
2022-08-22T10:13:57.274Z,2.50
2022-08-22T10:16:49.380Z,2.63
2022-08-22T10:19:28.618Z,2.28
2022-08-22T10:22:19.301Z,2.58
2022-08-22T10:25:33.825Z,1.90
2022-08-22T10:28:13.597Z,2.20
2022-08-22T10:31:02.163Z,1.90
2022-08-22T10:33:33.862Z,2.28
2022-08-22T10:36:13.711Z,2.05
2022-08-22T10:38:47.254Z,2.22
2022-08-22T10:41:38.508Z,1.92
2022-08-22T10:44:27.224Z,1.77
2022-08-22T10:47:07.747Z,1.65
2022-08-22T10:49:54.627Z,1.60
2022-08-22T10:52:31.826Z,1.30
2022-08-22T10:55:17.522Z,1.92
2022-08-22T10:57:59.912Z,1.52
2022-08-22T11:00:50.176Z,1.90
2022-08-22T11:03:46.528Z,1.60
2022-08-22T11:06:23.653Z,1.85
2022-08-22T11:09:10.200Z,2.25
2022-08-22T11:11:41.663Z,2.10
2022-08-22T11:14:30.190Z,1.70
2022-08-22T11:17:28.122Z,1.35
2022-08-22T11:20:09.066Z,2.08
2022-08-22T11:22:48.569Z,1.98
2022-08-22T11:25:35.919Z,2.10
2022-08-22T11:28:50.891Z,1.67
2022-08-22T11:31:38.302Z,1.75
2022-08-22T11:34:44.839Z,1.67
2022-08-22T11:37:42.783Z,2.33
2022-08-22T11:40:25.289Z,2.15
2022-08-22T11:43:05.036Z,2.22
2022-08-22T11:45:40.791Z,1.77
2022-08-22T11:48:21.291Z,1.83
2022-08-22T11:51:00.758Z,1.90
2022-08-22T11:53:34.935Z,2.33
2022-08-22T11:56:13.656Z,1.52
2022-08-22T11:58:58.919Z,2.38
2022-08-22T12:01:50.917Z,1.70
2022-08-22T12:04:23.615Z,2.17
2022-08-22T12:06:59.198Z,1.98
2022-08-22T12:09:43.634Z,1.75
2022-08-22T12:12:30.962Z,2.03
2022-08-22T12:15:45.440Z,2.13
2022-08-22T12:18:33.214Z,2.08
2022-08-22T12:21:23.775Z,1.40
2022-08-22T12:25:02.758Z,1.38
2022-08-22T12:27:55.515Z,1.58
2022-08-22T12:30:57.269Z,2.13
2022-08-22T12:33:45.916Z,1.77
2022-08-22T12:36:20.720Z,1.77
2022-08-22T12:39:05.248Z,1.95
2022-08-22T12:42:07.386Z,2.00
2022-08-22T12:44:49.293Z,1.75
2022-08-22T12:47:37.970Z,1.77
2022-08-22T12:50:36.005Z,1.95
2022-08-22T12:53:20.318Z,1.83
2022-08-22T12:56:16.674Z,1.50
2022-08-22T12:59:19.473Z,1.58
2022-08-22T13:01:49.108Z,1.58
2022-08-22T13:04:33.568Z,2.10
2022-08-22T13:07:05.318Z,1.25
2022-08-22T13:09:46.102Z,1.80
2022-08-22T13:12:28.207Z,1.55
2022-08-22T13:15:32.922Z,1.50
2022-08-22T13:18:28.715Z,1.55
2022-08-22T13:20:56.644Z,1.63
2022-08-22T13:23:39.936Z,1.83
2022-08-22T13:26:31.601Z,1.80
2022-08-22T13:29:39.660Z,1.30
2022-08-22T13:32:04.692Z,1.75
2022-08-22T13:34:43.577Z,1.67
2022-08-22T13:37:24.737Z,1.27
2022-08-22T13:39:58.525Z,1.45
2022-08-22T13:42:30.432Z,1.67
2022-08-22T13:45:02.594Z,1.88
2022-08-22T13:47:32.446Z,1.50
2022-08-22T13:50:19.133Z,1.42
2022-08-22T13:52:58.244Z,1.95
2022-08-22T13:55:32.706Z,1.70
2022-08-22T13:58:20.984Z,1.67
2022-08-22T14:01:13.697Z,1.73
2022-08-22T14:03:48.445Z,1.85
2022-08-22T14:06:35.397Z,1.77
2022-08-22T14:09:16.518Z,1.90
2022-08-22T14:12:08.134Z,1.95
2022-08-22T14:14:42.819Z,2.22
2022-08-22T14:17:20.972Z,1.52
2022-08-22T14:19:58.717Z,2.22
2022-08-22T14:22:34.596Z,1.83
2022-08-22T14:25:16.571Z,1.80
2022-08-22T14:27:49.871Z,1.40
2022-08-22T14:30:24.458Z,1.90
2022-08-22T14:32:57.115Z,1.85
2022-08-22T14:35:34.647Z,1.75
2022-08-22T14:38:32.495Z,1.60
2022-08-22T14:41:06.965Z,1.48
2022-08-22T14:43:33.361Z,1.70
2022-08-22T14:48:39.363Z,2.20
2022-08-22T14:51:22.937Z,1.73
2022-08-22T14:53:50.165Z,2.15
2022-08-22T14:56:23.843Z,1.70
2022-08-22T14:58:59.531Z,1.92
2022-08-22T15:01:29.944Z,1.60
2022-08-22T15:04:07.846Z,1.83
2022-08-22T15:06:57.849Z,1.83
2022-08-22T15:09:50.541Z,1.95
2022-08-22T15:12:23.671Z,1.83
2022-08-22T15:14:54.090Z,1.45
2022-08-22T15:17:35.318Z,1.27
2022-08-22T15:20:13.373Z,1.60
2022-08-22T15:22:45.458Z,1.52
2022-08-22T15:25:27.425Z,1.55
2022-08-22T15:27:57.835Z,1.60
2022-08-22T15:30:35.966Z,2.05
2022-08-22T15:33:20.864Z,1.80
2022-08-22T15:35:49.999Z,1.80
2022-08-22T15:38:32.680Z,2.00
2022-08-22T15:41:22.102Z,1.90
2022-08-22T15:43:53.637Z,1.60
2022-08-22T15:46:23.071Z,2.15
2022-08-22T15:49:03.020Z,1.90
2022-08-22T15:51:41.607Z,1.73
2022-08-22T15:54:24.937Z,2.00
2022-08-22T15:57:29.735Z,1.63
2022-08-22T15:59:58.883Z,1.63
2022-08-22T16:02:40.010Z,1.75
2022-08-22T16:05:09.631Z,1.65
2022-08-22T16:07:43.762Z,1.50
2022-08-22T16:10:46.216Z,1.45
2022-08-22T16:13:26.940Z,1.58
2022-08-22T16:16:05.754Z,1.55
2022-08-22T16:18:36.888Z,1.33
2022-08-22T16:21:10.520Z,1.48
2022-08-22T16:23:58.230Z,2.03
2022-08-22T16:26:24.690Z,1.90
2022-08-22T16:28:59.441Z,2.90
2022-08-22T16:31:33.752Z,2.63
2022-08-22T16:34:46.280Z,1.98
2022-08-22T16:37:14.539Z,2.45
2022-08-22T16:39:46.771Z,2.85
2022-08-22T16:42:15.928Z,2.70
2022-08-22T16:44:45.361Z,2.55
2022-08-22T16:47:14.140Z,2.13
2022-08-22T16:50:00.843Z,2.20
2022-08-22T16:52:27.554Z,1.95
2022-08-22T16:54:53.976Z,2.60
2022-08-22T16:57:50.586Z,3.20
2022-08-22T17:00:44.400Z,2.20
2022-08-22T17:03:49.039Z,1.65
2022-08-22T17:06:43.921Z,1.70
2022-08-22T17:09:40.181Z,2.33
2022-08-22T17:12:29.473Z,1.73
2022-08-22T17:15:33.548Z,2.00
2022-08-22T17:18:11.843Z,1.88
2022-08-22T17:21:17.070Z,1.98
2022-08-22T17:23:59.048Z,1.95
2022-08-22T17:26:40.888Z,1.55
2022-08-22T17:29:22.168Z,2.30
2022-08-22T17:32:19.539Z,2.45
2022-08-22T17:34:55.683Z,1.77
2022-08-22T17:37:38.169Z,1.98
2022-08-22T17:40:23.100Z,1.60
2022-08-22T17:42:57.048Z,2.40
2022-08-22T17:45:57.762Z,2.38
2022-08-22T17:48:38.827Z,2.10
2022-08-22T17:51:25.301Z,2.40
2022-08-22T17:54:14.976Z,1.98
2022-08-22T17:56:47.285Z,1.85
2022-08-22T17:59:26.035Z,2.28
2022-08-22T18:01:59.750Z,2.20
2022-08-22T18:04:47.356Z,1.85
2022-08-22T18:07:14.048Z,1.95
2022-08-22T18:12:24.765Z,1.75
2022-08-22T18:15:08.718Z,1.80
2022-08-22T18:17:40.056Z,1.85
2022-08-22T18:20:26.611Z,2.10
2022-08-22T18:23:36.281Z,2.13
2022-08-22T18:26:28.741Z,1.77
2022-08-22T18:29:03.973Z,2.38
2022-08-22T18:32:06.925Z,1.98
2022-08-22T18:34:43.991Z,2.20
2022-08-22T18:37:33.020Z,2.28
2022-08-22T18:40:07.954Z,1.83
2022-08-22T18:42:42.004Z,1.95
2022-08-22T18:45:16.525Z,2.08
2022-08-22T18:47:44.223Z,2.35
2022-08-22T18:50:31.606Z,2.10
2022-08-22T18:52:59.382Z,2.10
2022-08-22T18:55:48.997Z,2.35
2022-08-22T18:58:36.234Z,2.33
2022-08-22T19:01:32.420Z,2.20
2022-08-22T19:04:14.572Z,2.00
2022-08-22T19:06:56.649Z,2.42
2022-08-22T19:09:43.654Z,2.45
2022-08-22T19:12:31.997Z,2.50
2022-08-22T19:15:20.374Z,3.00
2022-08-22T19:18:03.305Z,2.53
2022-08-22T19:20:51.486Z,2.80
2022-08-22T19:23:37.145Z,2.60
2022-08-22T19:26:33.709Z,2.50
2022-08-22T19:29:16.043Z,2.45
2022-08-22T19:31:48.335Z,3.03
2022-08-22T19:34:25.720Z,2.70
2022-08-22T19:37:32.281Z,2.95
2022-08-22T19:40:05.853Z,2.72
2022-08-22T19:42:35.922Z,2.40
2022-08-22T19:45:05.245Z,2.63
2022-08-22T19:47:34.915Z,2.72
2022-08-22T19:50:10.732Z,2.38
2022-08-22T19:53:19.962Z,2.33
2022-08-22T19:56:02.028Z,2.22
2022-08-22T19:58:47.192Z,2.38
2022-08-22T20:01:38.957Z,2.45
2022-08-22T20:04:27.056Z,2.63
2022-08-22T20:07:14.758Z,2.42
2022-08-22T20:09:52.032Z,2.60
2022-08-22T20:12:54.111Z,2.85
2022-08-22T20:15:23.469Z,2.67
2022-08-22T20:20:55.608Z,2.75
2022-08-22T20:23:30.300Z,2.85
2022-08-22T20:25:57.997Z,2.50
2022-08-22T20:28:49.736Z,2.83
2022-08-22T20:31:26.240Z,2.88
2022-08-22T20:34:00.370Z,3.03
2022-08-22T20:36:28.567Z,3.00
2022-08-22T20:39:08.802Z,2.97
2022-08-22T20:41:40.643Z,3.28
2022-08-22T20:44:22.454Z,2.75
2022-08-22T20:46:53.658Z,2.60
2022-08-22T20:49:34.532Z,2.60
2022-08-22T20:52:09.736Z,3.30
2022-08-22T20:54:39.168Z,2.92
2022-08-22T20:57:19.265Z,2.53
2022-08-22T20:59:54.645Z,3.03
2022-08-22T21:02:34.895Z,2.92
2022-08-22T21:05:13.409Z,3.30
2022-08-22T21:07:42.921Z,2.85
2022-08-22T21:10:35.352Z,3.40
2022-08-22T21:13:06.290Z,2.95
2022-08-22T21:15:42.456Z,2.53
2022-08-22T21:18:23.197Z,2.97
2022-08-22T21:20:50.659Z,2.72
2022-08-22T21:23:17.944Z,2.60
2022-08-22T21:26:00.751Z,2.80
2022-08-22T21:28:57.284Z,3.35
2022-08-22T21:31:28.719Z,3.25
2022-08-22T21:33:56.203Z,2.78
2022-08-22T21:36:27.484Z,3.38
2022-08-22T21:39:04.324Z,3.38
2022-08-22T21:41:43.380Z,3.40
2022-08-22T21:44:30.849Z,2.97
2022-08-22T21:47:14.871Z,3.92
2022-08-22T21:50:02.503Z,4.13
2022-08-22T21:52:31.686Z,2.92
2022-08-22T21:55:16.368Z,3.17
2022-08-22T21:57:43.854Z,3.17
2022-08-22T22:03:01.088Z,3.88
2022-08-22T22:05:29.530Z,3.10
2022-08-22T22:07:56.277Z,3.60
2022-08-22T22:10:23.191Z,4.22
2022-08-22T22:12:52.790Z,3.85
2022-08-22T22:15:21.735Z,3.72
2022-08-22T22:17:48.734Z,3.55
2022-08-22T22:20:18.150Z,3.60
2022-08-22T22:22:46.536Z,3.70
2022-08-22T22:25:40.346Z,3.70
2022-08-22T22:28:18.559Z,4.05
2022-08-22T22:30:50.312Z,3.65
2022-08-22T22:33:18.150Z,3.42
2022-08-22T22:35:45.055Z,3.63
2022-08-22T22:38:12.973Z,3.92
2022-08-22T22:40:41.224Z,4.07
2022-08-22T22:43:09.942Z,3.88
2022-08-22T22:45:36.857Z,4.28
2022-08-22T22:48:04.802Z,3.83
2022-08-22T22:50:31.654Z,4.03
2022-08-22T22:52:58.168Z,3.50
2022-08-22T22:55:25.312Z,4.07
2022-08-22T22:57:59.180Z,4.20
2022-08-22T23:00:32.189Z,4.18
2022-08-22T23:03:01.220Z,4.30
2022-08-22T23:05:29.798Z,3.75
2022-08-22T23:07:56.975Z,4.25
2022-08-22T23:10:23.533Z,4.35
2022-08-22T23:12:50.102Z,3.92
2022-08-22T23:15:21.598Z,3.42
2022-08-22T23:17:48.404Z,4.43
2022-08-22T23:22:42.913Z,4.30
2022-08-22T23:25:09.687Z,3.75
2022-08-22T23:27:36.640Z,3.42
2022-08-22T23:30:05.781Z,3.85
2022-08-22T23:32:32.396Z,3.63
2022-08-22T23:34:58.938Z,4.38
2022-08-22T23:37:25.480Z,4.35
2022-08-22T23:42:18.995Z,4.50
2022-08-22T23:44:46.069Z,3.88
2022-08-22T23:47:14.058Z,4.07
2022-08-22T23:49:42.098Z,3.97
2022-08-22T23:52:11.289Z,4.10
2022-08-22T23:54:37.998Z,4.43
2022-08-22T23:59:44.557Z,4.13
